sensor_id;sensor_type;location;lat;lon;timestamp;P1;durP1;ratioP1;P2;durP2;ratioP2
14907;SDS011;7545;52.092;7.006;2023-07-16T00:01:59;5.22;;;2.67;;
14907;SDS011;7545;52.092;7.006;2023-07-16T00:04:25;3.58;;;2.00;;
14907;SDS011;7545;52.092;7.006;2023-07-16T00:06:50;5.68;;;2.30;;
14907;SDS011;7545;52.092;7.006;2023-07-16T00:09:16;2.75;;;1.73;;
14907;SDS011;7545;52.092;7.006;2023-07-16T00:11:44;4.63;;;2.40;;
14907;SDS011;7545;52.092;7.006;2023-07-16T00:14:10;2.45;;;1.70;;
14907;SDS011;7545;52.092;7.006;2023-07-16T00:16:37;2.90;;;1.70;;
14907;SDS011;7545;52.092;7.006;2023-07-16T00:19:02;2.60;;;1.33;;
14907;SDS011;7545;52.092;7.006;2023-07-16T00:21:28;3.60;;;1.85;;
14907;SDS011;7545;52.092;7.006;2023-07-16T00:23:54;3.45;;;2.00;;
14907;SDS011;7545;52.092;7.006;2023-07-16T00:26:20;3.35;;;1.88;;
14907;SDS011;7545;52.092;7.006;2023-07-16T00:28:46;2.53;;;1.45;;
14907;SDS011;7545;52.092;7.006;2023-07-16T00:31:12;4.78;;;1.75;;
14907;SDS011;7545;52.092;7.006;2023-07-16T00:33:38;3.10;;;1.85;;
14907;SDS011;7545;52.092;7.006;2023-07-16T00:36:03;2.53;;;1.88;;
14907;SDS011;7545;52.092;7.006;2023-07-16T00:38:29;2.53;;;1.75;;
14907;SDS011;7545;52.092;7.006;2023-07-16T00:40:55;4.07;;;2.20;;
14907;SDS011;7545;52.092;7.006;2023-07-16T00:43:21;3.47;;;1.80;;
14907;SDS011;7545;52.092;7.006;2023-07-16T00:45:47;3.35;;;1.83;;
14907;SDS011;7545;52.092;7.006;2023-07-16T00:48:13;7.05;;;2.63;;
14907;SDS011;7545;52.092;7.006;2023-07-16T00:50:39;3.40;;;2.08;;
14907;SDS011;7545;52.092;7.006;2023-07-16T00:53:06;2.58;;;2.00;;
14907;SDS011;7545;52.092;7.006;2023-07-16T00:55:32;2.95;;;1.95;;
14907;SDS011;7545;52.092;7.006;2023-07-16T00:58:00;2.35;;;1.75;;
14907;SDS011;7545;52.092;7.006;2023-07-16T01:00:34;2.00;;;1.63;;
14907;SDS011;7545;52.092;7.006;2023-07-16T01:03:09;3.63;;;1.55;;
14907;SDS011;7545;52.092;7.006;2023-07-16T01:05:50;3.47;;;2.38;;
14907;SDS011;7545;52.092;7.006;2023-07-16T01:09:00;2.72;;;1.70;;
14907;SDS011;7545;52.092;7.006;2023-07-16T01:11:22;3.65;;;1.70;;
14907;SDS011;7545;52.092;7.006;2023-07-16T01:13:49;3.05;;;1.40;;
14907;SDS011;7545;52.092;7.006;2023-07-16T01:16:19;2.10;;;1.70;;
14907;SDS011;7545;52.092;7.006;2023-07-16T01:18:49;2.83;;;1.30;;
14907;SDS011;7545;52.092;7.006;2023-07-16T01:21:16;5.13;;;2.30;;
14907;SDS011;7545;52.092;7.006;2023-07-16T01:29:12;3.40;;;1.85;;
14907;SDS011;7545;52.092;7.006;2023-07-16T01:31:45;3.60;;;1.73;;
14907;SDS011;7545;52.092;7.006;2023-07-16T01:34:19;4.63;;;2.40;;
14907;SDS011;7545;52.092;7.006;2023-07-16T01:36:46;2.72;;;1.90;;
14907;SDS011;7545;52.092;7.006;2023-07-16T01:39:11;4.10;;;2.10;;
14907;SDS011;7545;52.092;7.006;2023-07-16T01:41:37;2.22;;;1.50;;
14907;SDS011;7545;52.092;7.006;2023-07-16T01:44:03;2.30;;;1.60;;
14907;SDS011;7545;52.092;7.006;2023-07-16T01:46:29;4.18;;;1.60;;
14907;SDS011;7545;52.092;7.006;2023-07-16T01:48:54;3.53;;;2.03;;
14907;SDS011;7545;52.092;7.006;2023-07-16T01:51:20;1.98;;;1.30;;
14907;SDS011;7545;52.092;7.006;2023-07-16T01:53:46;2.83;;;1.60;;
14907;SDS011;7545;52.092;7.006;2023-07-16T01:56:12;1.52;;;1.23;;
14907;SDS011;7545;52.092;7.006;2023-07-16T01:58:37;4.47;;;2.30;;
14907;SDS011;7545;52.092;7.006;2023-07-16T02:01:03;2.42;;;1.55;;
14907;SDS011;7545;52.092;7.006;2023-07-16T02:03:29;3.70;;;1.67;;
14907;SDS011;7545;52.092;7.006;2023-07-16T02:05:54;4.80;;;1.65;;
14907;SDS011;7545;52.092;7.006;2023-07-16T02:08:20;2.75;;;1.75;;
14907;SDS011;7545;52.092;7.006;2023-07-16T02:10:49;6.00;;;1.90;;
14907;SDS011;7545;52.092;7.006;2023-07-16T02:13:14;4.18;;;1.95;;
14907;SDS011;7545;52.092;7.006;2023-07-16T02:15:40;4.97;;;1.73;;
14907;SDS011;7545;52.092;7.006;2023-07-16T02:18:06;2.13;;;1.70;;
14907;SDS011;7545;52.092;7.006;2023-07-16T02:20:31;2.08;;;1.40;;
14907;SDS011;7545;52.092;7.006;2023-07-16T02:22:57;4.57;;;1.70;;
14907;SDS011;7545;52.092;7.006;2023-07-16T02:25:23;2.97;;;1.92;;
14907;SDS011;7545;52.092;7.006;2023-07-16T02:27:48;2.50;;;1.45;;
14907;SDS011;7545;52.092;7.006;2023-07-16T02:30:15;5.93;;;1.85;;
14907;SDS011;7545;52.092;7.006;2023-07-16T02:32:40;3.30;;;1.80;;
14907;SDS011;7545;52.092;7.006;2023-07-16T02:35:06;3.92;;;1.48;;
14907;SDS011;7545;52.092;7.006;2023-07-16T02:37:32;2.60;;;1.58;;
14907;SDS011;7545;52.092;7.006;2023-07-16T02:39:58;4.38;;;1.58;;
14907;SDS011;7545;52.092;7.006;2023-07-16T02:42:24;6.57;;;1.70;;
14907;SDS011;7545;52.092;7.006;2023-07-16T02:44:49;5.13;;;1.50;;
14907;SDS011;7545;52.092;7.006;2023-07-16T02:47:15;2.70;;;1.70;;
14907;SDS011;7545;52.092;7.006;2023-07-16T02:49:40;2.33;;;1.50;;
14907;SDS011;7545;52.092;7.006;2023-07-16T02:52:06;3.53;;;1.60;;
14907;SDS011;7545;52.092;7.006;2023-07-16T02:54:32;4.97;;;2.13;;
14907;SDS011;7545;52.092;7.006;2023-07-16T02:56:58;1.63;;;1.52;;
14907;SDS011;7545;52.092;7.006;2023-07-16T02:59:24;4.05;;;1.63;;
14907;SDS011;7545;52.092;7.006;2023-07-16T03:01:50;7.10;;;2.13;;
14907;SDS011;7545;52.092;7.006;2023-07-16T03:04:16;3.28;;;1.92;;
14907;SDS011;7545;52.092;7.006;2023-07-16T03:06:41;4.07;;;1.65;;
14907;SDS011;7545;52.092;7.006;2023-07-16T03:09:07;3.70;;;1.40;;
14907;SDS011;7545;52.092;7.006;2023-07-16T03:11:32;3.53;;;1.75;;
14907;SDS011;7545;52.092;7.006;2023-07-16T03:13:58;3.70;;;1.80;;
14907;SDS011;7545;52.092;7.006;2023-07-16T03:16:23;2.17;;;1.65;;
14907;SDS011;7545;52.092;7.006;2023-07-16T03:18:49;2.33;;;1.80;;
14907;SDS011;7545;52.092;7.006;2023-07-16T03:21:15;3.53;;;1.75;;
14907;SDS011;7545;52.092;7.006;2023-07-16T03:23:40;4.18;;;1.83;;
14907;SDS011;7545;52.092;7.006;2023-07-16T03:26:06;4.18;;;1.50;;
14907;SDS011;7545;52.092;7.006;2023-07-16T03:28:31;5.78;;;2.10;;
14907;SDS011;7545;52.092;7.006;2023-07-16T03:30:57;2.88;;;1.70;;
14907;SDS011;7545;52.092;7.006;2023-07-16T03:33:22;4.00;;;1.67;;
14907;SDS011;7545;52.092;7.006;2023-07-16T03:35:48;3.08;;;1.35;;
14907;SDS011;7545;52.092;7.006;2023-07-16T03:38:15;4.97;;;1.50;;
14907;SDS011;7545;52.092;7.006;2023-07-16T03:40:42;3.55;;;1.67;;
14907;SDS011;7545;52.092;7.006;2023-07-16T03:43:14;2.80;;;1.83;;
14907;SDS011;7545;52.092;7.006;2023-07-16T03:45:40;2.58;;;1.50;;
14907;SDS011;7545;52.092;7.006;2023-07-16T03:48:06;3.47;;;2.10;;
14907;SDS011;7545;52.092;7.006;2023-07-16T03:50:31;3.75;;;1.70;;
14907;SDS011;7545;52.092;7.006;2023-07-16T03:52:57;3.65;;;1.95;;
14907;SDS011;7545;52.092;7.006;2023-07-16T03:55:23;2.97;;;2.08;;
14907;SDS011;7545;52.092;7.006;2023-07-16T03:57:49;4.53;;;1.83;;
14907;SDS011;7545;52.092;7.006;2023-07-16T04:00:15;5.50;;;1.92;;
14907;SDS011;7545;52.092;7.006;2023-07-16T04:02:40;3.65;;;1.88;;
14907;SDS011;7545;52.092;7.006;2023-07-16T04:05:06;4.57;;;1.67;;
14907;SDS011;7545;52.092;7.006;2023-07-16T04:07:32;3.28;;;1.80;;
14907;SDS011;7545;52.092;7.006;2023-07-16T04:09:58;3.78;;;1.73;;
14907;SDS011;7545;52.092;7.006;2023-07-16T04:12:23;4.88;;;1.73;;
14907;SDS011;7545;52.092;7.006;2023-07-16T04:14:49;4.90;;;2.15;;
14907;SDS011;7545;52.092;7.006;2023-07-16T04:17:19;4.97;;;1.80;;
14907;SDS011;7545;52.092;7.006;2023-07-16T04:19:45;4.03;;;2.03;;
14907;SDS011;7545;52.092;7.006;2023-07-16T04:22:10;5.18;;;2.10;;
14907;SDS011;7545;52.092;7.006;2023-07-16T04:24:36;4.60;;;2.15;;
14907;SDS011;7545;52.092;7.006;2023-07-16T04:27:02;5.00;;;1.75;;
14907;SDS011;7545;52.092;7.006;2023-07-16T04:29:27;2.08;;;1.73;;
14907;SDS011;7545;52.092;7.006;2023-07-16T04:31:53;3.35;;;2.03;;
14907;SDS011;7545;52.092;7.006;2023-07-16T04:34:18;5.28;;;1.75;;
14907;SDS011;7545;52.092;7.006;2023-07-16T04:36:44;4.30;;;1.95;;
14907;SDS011;7545;52.092;7.006;2023-07-16T04:39:10;3.45;;;2.00;;
14907;SDS011;7545;52.092;7.006;2023-07-16T04:41:35;4.75;;;2.00;;
14907;SDS011;7545;52.092;7.006;2023-07-16T04:44:01;4.35;;;2.10;;
14907;SDS011;7545;52.092;7.006;2023-07-16T04:46:27;5.35;;;2.00;;
14907;SDS011;7545;52.092;7.006;2023-07-16T04:48:52;4.00;;;1.90;;
14907;SDS011;7545;52.092;7.006;2023-07-16T04:51:18;3.67;;;1.75;;
14907;SDS011;7545;52.092;7.006;2023-07-16T04:53:44;4.25;;;1.92;;
14907;SDS011;7545;52.092;7.006;2023-07-16T04:56:12;3.22;;;1.85;;
14907;SDS011;7545;52.092;7.006;2023-07-16T04:58:38;3.30;;;1.45;;
14907;SDS011;7545;52.092;7.006;2023-07-16T05:01:04;3.38;;;1.70;;
14907;SDS011;7545;52.092;7.006;2023-07-16T05:03:30;2.67;;;1.90;;
14907;SDS011;7545;52.092;7.006;2023-07-16T05:05:55;5.25;;;2.10;;
14907;SDS011;7545;52.092;7.006;2023-07-16T05:08:21;5.13;;;2.00;;
14907;SDS011;7545;52.092;7.006;2023-07-16T05:10:46;3.13;;;2.05;;
14907;SDS011;7545;52.092;7.006;2023-07-16T05:13:12;5.25;;;2.40;;
14907;SDS011;7545;52.092;7.006;2023-07-16T05:15:37;4.25;;;2.50;;
14907;SDS011;7545;52.092;7.006;2023-07-16T05:18:03;8.40;;;5.30;;
14907;SDS011;7545;52.092;7.006;2023-07-16T05:20:29;3.95;;;2.60;;
14907;SDS011;7545;52.092;7.006;2023-07-16T05:22:54;4.10;;;2.30;;
14907;SDS011;7545;52.092;7.006;2023-07-16T05:25:20;5.57;;;1.77;;
14907;SDS011;7545;52.092;7.006;2023-07-16T05:27:45;8.35;;;2.53;;
14907;SDS011;7545;52.092;7.006;2023-07-16T05:30:11;5.32;;;2.45;;
14907;SDS011;7545;52.092;7.006;2023-07-16T05:32:37;6.82;;;2.40;;
14907;SDS011;7545;52.092;7.006;2023-07-16T05:35:03;4.75;;;2.10;;
14907;SDS011;7545;52.092;7.006;2023-07-16T05:37:29;4.60;;;2.30;;
14907;SDS011;7545;52.092;7.006;2023-07-16T05:39:55;4.45;;;2.20;;
14907;SDS011;7545;52.092;7.006;2023-07-16T05:42:20;4.25;;;2.50;;
14907;SDS011;7545;52.092;7.006;2023-07-16T05:44:49;6.28;;;2.42;;
14907;SDS011;7545;52.092;7.006;2023-07-16T05:47:14;3.85;;;2.30;;
14907;SDS011;7545;52.092;7.006;2023-07-16T05:49:40;5.22;;;2.13;;
14907;SDS011;7545;52.092;7.006;2023-07-16T05:52:06;5.00;;;2.42;;
14907;SDS011;7545;52.092;7.006;2023-07-16T05:54:32;4.25;;;2.70;;
14907;SDS011;7545;52.092;7.006;2023-07-16T05:56:57;3.85;;;2.67;;
14907;SDS011;7545;52.092;7.006;2023-07-16T05:59:23;5.60;;;2.90;;
14907;SDS011;7545;52.092;7.006;2023-07-16T06:01:50;8.93;;;2.92;;
14907;SDS011;7545;52.092;7.006;2023-07-16T06:04:15;4.80;;;2.88;;
14907;SDS011;7545;52.092;7.006;2023-07-16T06:06:41;5.57;;;2.95;;
14907;SDS011;7545;52.092;7.006;2023-07-16T06:09:06;5.50;;;2.70;;
14907;SDS011;7545;52.092;7.006;2023-07-16T06:11:32;11.20;;;3.42;;
14907;SDS011;7545;52.092;7.006;2023-07-16T06:13:57;6.22;;;3.75;;
14907;SDS011;7545;52.092;7.006;2023-07-16T06:16:23;6.93;;;2.83;;
14907;SDS011;7545;52.092;7.006;2023-07-16T06:18:48;6.50;;;3.42;;
14907;SDS011;7545;52.092;7.006;2023-07-16T06:21:14;7.53;;;3.55;;
14907;SDS011;7545;52.092;7.006;2023-07-16T06:23:40;6.93;;;3.10;;
14907;SDS011;7545;52.092;7.006;2023-07-16T06:26:05;5.82;;;3.25;;
14907;SDS011;7545;52.092;7.006;2023-07-16T06:28:31;6.45;;;3.55;;
14907;SDS011;7545;52.092;7.006;2023-07-16T06:30:57;7.07;;;3.75;;
14907;SDS011;7545;52.092;7.006;2023-07-16T06:33:22;8.80;;;2.78;;
14907;SDS011;7545;52.092;7.006;2023-07-16T06:35:50;6.22;;;3.85;;
14907;SDS011;7545;52.092;7.006;2023-07-16T06:38:16;7.70;;;3.30;;
14907;SDS011;7545;52.092;7.006;2023-07-16T06:40:47;8.98;;;2.97;;
14907;SDS011;7545;52.092;7.006;2023-07-16T06:43:14;5.40;;;3.25;;
14907;SDS011;7545;52.092;7.006;2023-07-16T06:45:40;9.02;;;3.63;;
14907;SDS011;7545;52.092;7.006;2023-07-16T06:48:06;5.88;;;3.08;;
14907;SDS011;7545;52.092;7.006;2023-07-16T06:50:32;5.28;;;3.22;;
14907;SDS011;7545;52.092;7.006;2023-07-16T06:52:57;5.20;;;2.45;;
14907;SDS011;7545;52.092;7.006;2023-07-16T06:55:23;5.25;;;2.88;;
14907;SDS011;7545;52.092;7.006;2023-07-16T06:57:48;6.10;;;3.20;;
14907;SDS011;7545;52.092;7.006;2023-07-16T07:00:14;6.53;;;3.20;;
14907;SDS011;7545;52.092;7.006;2023-07-16T07:02:40;4.75;;;3.33;;
14907;SDS011;7545;52.092;7.006;2023-07-16T07:05:06;6.30;;;3.45;;
14907;SDS011;7545;52.092;7.006;2023-07-16T07:07:32;7.30;;;3.58;;
14907;SDS011;7545;52.092;7.006;2023-07-16T07:10:00;7.78;;;3.47;;
14907;SDS011;7545;52.092;7.006;2023-07-16T07:12:26;5.13;;;3.30;;
14907;SDS011;7545;52.092;7.006;2023-07-16T07:14:52;6.90;;;3.25;;
14907;SDS011;7545;52.092;7.006;2023-07-16T07:17:17;6.22;;;3.20;;
14907;SDS011;7545;52.092;7.006;2023-07-16T07:19:43;7.40;;;3.25;;
14907;SDS011;7545;52.092;7.006;2023-07-16T07:22:09;5.10;;;3.17;;
14907;SDS011;7545;52.092;7.006;2023-07-16T07:24:35;4.35;;;3.05;;
14907;SDS011;7545;52.092;7.006;2023-07-16T07:27:00;4.97;;;3.55;;
14907;SDS011;7545;52.092;7.006;2023-07-16T07:29:26;4.72;;;3.33;;
14907;SDS011;7545;52.092;7.006;2023-07-16T07:31:52;10.25;;;2.90;;
14907;SDS011;7545;52.092;7.006;2023-07-16T07:34:18;4.40;;;2.75;;
14907;SDS011;7545;52.092;7.006;2023-07-16T07:36:44;8.55;;;3.58;;
14907;SDS011;7545;52.092;7.006;2023-07-16T07:39:10;6.00;;;3.05;;
14907;SDS011;7545;52.092;7.006;2023-07-16T07:41:35;6.85;;;3.78;;
14907;SDS011;7545;52.092;7.006;2023-07-16T07:44:01;5.05;;;3.45;;
14907;SDS011;7545;52.092;7.006;2023-07-16T07:46:27;4.65;;;3.15;;
14907;SDS011;7545;52.092;7.006;2023-07-16T07:48:52;7.88;;;3.42;;
14907;SDS011;7545;52.092;7.006;2023-07-16T07:51:19;5.35;;;2.78;;
14907;SDS011;7545;52.092;7.006;2023-07-16T07:53:44;5.50;;;3.15;;
14907;SDS011;7545;52.092;7.006;2023-07-16T07:56:10;6.57;;;3.60;;
14907;SDS011;7545;52.092;7.006;2023-07-16T07:58:36;5.82;;;3.65;;
14907;SDS011;7545;52.092;7.006;2023-07-16T08:01:08;6.78;;;3.00;;
14907;SDS011;7545;52.092;7.006;2023-07-16T08:03:34;8.23;;;3.30;;
14907;SDS011;7545;52.092;7.006;2023-07-16T08:06:00;6.40;;;3.80;;
14907;SDS011;7545;52.092;7.006;2023-07-16T08:08:25;7.85;;;3.47;;
14907;SDS011;7545;52.092;7.006;2023-07-16T08:10:51;6.70;;;3.17;;
14907;SDS011;7545;52.092;7.006;2023-07-16T08:13:18;6.70;;;3.30;;
14907;SDS011;7545;52.092;7.006;2023-07-16T08:15:43;7.60;;;3.42;;
14907;SDS011;7545;52.092;7.006;2023-07-16T08:18:09;5.05;;;2.80;;
14907;SDS011;7545;52.092;7.006;2023-07-16T08:20:37;7.07;;;3.30;;
14907;SDS011;7545;52.092;7.006;2023-07-16T08:23:03;4.95;;;3.15;;
14907;SDS011;7545;52.092;7.006;2023-07-16T08:25:29;4.57;;;3.00;;
14907;SDS011;7545;52.092;7.006;2023-07-16T08:27:54;8.07;;;3.40;;
14907;SDS011;7545;52.092;7.006;2023-07-16T08:30:20;5.47;;;2.90;;
14907;SDS011;7545;52.092;7.006;2023-07-16T08:32:46;7.40;;;3.30;;
14907;SDS011;7545;52.092;7.006;2023-07-16T08:35:12;7.72;;;3.83;;
14907;SDS011;7545;52.092;7.006;2023-07-16T08:37:41;5.63;;;3.13;;
14907;SDS011;7545;52.092;7.006;2023-07-16T08:40:10;6.93;;;3.40;;
14907;SDS011;7545;52.092;7.006;2023-07-16T08:42:38;6.97;;;3.13;;
14907;SDS011;7545;52.092;7.006;2023-07-16T08:45:07;5.68;;;3.08;;
14907;SDS011;7545;52.092;7.006;2023-07-16T08:47:35;5.80;;;3.63;;
14907;SDS011;7545;52.092;7.006;2023-07-16T08:50:01;6.95;;;3.83;;
14907;SDS011;7545;52.092;7.006;2023-07-16T08:52:28;5.72;;;3.30;;
14907;SDS011;7545;52.092;7.006;2023-07-16T08:54:54;5.80;;;3.13;;
14907;SDS011;7545;52.092;7.006;2023-07-16T08:57:20;5.32;;;3.47;;
14907;SDS011;7545;52.092;7.006;2023-07-16T08:59:50;7.65;;;2.92;;
14907;SDS011;7545;52.092;7.006;2023-07-16T09:02:20;4.63;;;2.80;;
14907;SDS011;7545;52.092;7.006;2023-07-16T09:04:46;61.05;;;8.27;;
14907;SDS011;7545;52.092;7.006;2023-07-16T09:07:13;14.38;;;3.25;;
14907;SDS011;7545;52.092;7.006;2023-07-16T09:09:38;6.13;;;3.20;;
14907;SDS011;7545;52.092;7.006;2023-07-16T09:12:04;4.05;;;3.08;;
14907;SDS011;7545;52.092;7.006;2023-07-16T09:14:30;5.32;;;2.50;;
14907;SDS011;7545;52.092;7.006;2023-07-16T09:16:56;5.00;;;2.67;;
14907;SDS011;7545;52.092;7.006;2023-07-16T09:19:21;6.38;;;2.78;;
14907;SDS011;7545;52.092;7.006;2023-07-16T09:21:47;6.80;;;3.13;;
14907;SDS011;7545;52.092;7.006;2023-07-16T09:24:13;5.43;;;2.75;;
14907;SDS011;7545;52.092;7.006;2023-07-16T09:26:47;4.65;;;2.65;;
14907;SDS011;7545;52.092;7.006;2023-07-16T09:29:13;7.93;;;3.65;;
14907;SDS011;7545;52.092;7.006;2023-07-16T09:31:50;5.70;;;3.15;;
14907;SDS011;7545;52.092;7.006;2023-07-16T09:34:26;6.93;;;2.97;;
14907;SDS011;7545;52.092;7.006;2023-07-16T09:36:53;8.15;;;3.30;;
14907;SDS011;7545;52.092;7.006;2023-07-16T09:39:18;5.60;;;2.72;;
14907;SDS011;7545;52.092;7.006;2023-07-16T09:41:45;6.25;;;2.70;;
14907;SDS011;7545;52.092;7.006;2023-07-16T09:44:15;5.60;;;3.28;;
14907;SDS011;7545;52.092;7.006;2023-07-16T09:46:41;11.50;;;3.70;;
14907;SDS011;7545;52.092;7.006;2023-07-16T09:49:07;6.35;;;3.22;;
14907;SDS011;7545;52.092;7.006;2023-07-16T09:51:38;3.45;;;2.20;;
14907;SDS011;7545;52.092;7.006;2023-07-16T09:54:04;4.00;;;2.83;;
14907;SDS011;7545;52.092;7.006;2023-07-16T09:56:35;6.90;;;3.08;;
14907;SDS011;7545;52.092;7.006;2023-07-16T09:59:13;4.82;;;2.83;;
14907;SDS011;7545;52.092;7.006;2023-07-16T10:01:41;5.15;;;3.00;;
14907;SDS011;7545;52.092;7.006;2023-07-16T10:04:13;9.27;;;2.75;;
14907;SDS011;7545;52.092;7.006;2023-07-16T10:06:51;4.57;;;2.78;;
14907;SDS011;7545;52.092;7.006;2023-07-16T10:12:18;3.33;;;2.40;;
14907;SDS011;7545;52.092;7.006;2023-07-16T10:14:45;8.50;;;2.78;;
14907;SDS011;7545;52.092;7.006;2023-07-16T10:17:18;7.50;;;3.10;;
14907;SDS011;7545;52.092;7.006;2023-07-16T10:27:42;5.30;;;3.13;;
14907;SDS011;7545;52.092;7.006;2023-07-16T10:30:09;5.28;;;3.05;;
14907;SDS011;7545;52.092;7.006;2023-07-16T10:32:35;5.93;;;3.28;;
14907;SDS011;7545;52.092;7.006;2023-07-16T10:35:01;4.35;;;2.95;;
14907;SDS011;7545;52.092;7.006;2023-07-16T10:37:28;8.65;;;3.35;;
14907;SDS011;7545;52.092;7.006;2023-07-16T10:39:55;5.65;;;3.40;;
14907;SDS011;7545;52.092;7.006;2023-07-16T10:42:22;5.97;;;3.35;;
14907;SDS011;7545;52.092;7.006;2023-07-16T10:44:50;7.20;;;3.10;;
14907;SDS011;7545;52.092;7.006;2023-07-16T10:47:21;5.93;;;2.85;;
14907;SDS011;7545;52.092;7.006;2023-07-16T10:49:56;5.00;;;3.00;;
14907;SDS011;7545;52.092;7.006;2023-07-16T10:52:22;3.47;;;2.50;;
14907;SDS011;7545;52.092;7.006;2023-07-16T10:54:51;6.03;;;2.97;;
14907;SDS011;7545;52.092;7.006;2023-07-16T10:57:19;4.70;;;2.70;;
14907;SDS011;7545;52.092;7.006;2023-07-16T10:59:46;7.15;;;3.45;;
14907;SDS011;7545;52.092;7.006;2023-07-16T11:02:14;3.70;;;2.72;;
14907;SDS011;7545;52.092;7.006;2023-07-16T11:04:40;5.28;;;2.67;;
14907;SDS011;7545;52.092;7.006;2023-07-16T11:07:07;3.78;;;2.38;;
14907;SDS011;7545;52.092;7.006;2023-07-16T11:09:34;4.47;;;3.30;;
14907;SDS011;7545;52.092;7.006;2023-07-16T11:12:06;3.15;;;2.67;;
14907;SDS011;7545;52.092;7.006;2023-07-16T11:14:33;7.05;;;3.67;;
14907;SDS011;7545;52.092;7.006;2023-07-16T11:17:08;3.88;;;2.47;;
14907;SDS011;7545;52.092;7.006;2023-07-16T11:19:34;5.57;;;3.10;;
14907;SDS011;7545;52.092;7.006;2023-07-16T11:22:01;4.95;;;2.80;;
14907;SDS011;7545;52.092;7.006;2023-07-16T11:24:28;5.60;;;3.50;;
14907;SDS011;7545;52.092;7.006;2023-07-16T11:26:54;6.38;;;3.22;;
14907;SDS011;7545;52.092;7.006;2023-07-16T11:29:22;5.32;;;3.08;;
14907;SDS011;7545;52.092;7.006;2023-07-16T11:31:49;7.97;;;3.17;;
14907;SDS011;7545;52.092;7.006;2023-07-16T11:34:15;5.10;;;2.58;;
14907;SDS011;7545;52.092;7.006;2023-07-16T11:36:42;4.53;;;2.78;;
14907;SDS011;7545;52.092;7.006;2023-07-16T11:39:07;4.25;;;2.88;;
14907;SDS011;7545;52.092;7.006;2023-07-16T11:41:37;7.30;;;3.03;;
14907;SDS011;7545;52.092;7.006;2023-07-16T11:44:03;5.25;;;2.50;;
14907;SDS011;7545;52.092;7.006;2023-07-16T11:46:32;6.68;;;2.90;;
14907;SDS011;7545;52.092;7.006;2023-07-16T11:48:58;6.38;;;3.30;;
14907;SDS011;7545;52.092;7.006;2023-07-16T11:51:27;4.43;;;2.67;;
14907;SDS011;7545;52.092;7.006;2023-07-16T11:53:53;4.57;;;2.95;;
14907;SDS011;7545;52.092;7.006;2023-07-16T11:56:20;4.88;;;2.30;;
14907;SDS011;7545;52.092;7.006;2023-07-16T11:58:46;5.60;;;2.47;;
14907;SDS011;7545;52.092;7.006;2023-07-16T12:01:12;5.22;;;2.65;;
14907;SDS011;7545;52.092;7.006;2023-07-16T12:03:39;4.10;;;2.22;;
14907;SDS011;7545;52.092;7.006;2023-07-16T12:06:05;4.70;;;2.47;;
14907;SDS011;7545;52.092;7.006;2023-07-16T12:08:30;3.25;;;2.13;;
14907;SDS011;7545;52.092;7.006;2023-07-16T12:10:56;4.30;;;2.42;;
14907;SDS011;7545;52.092;7.006;2023-07-16T12:13:22;5.32;;;2.38;;
14907;SDS011;7545;52.092;7.006;2023-07-16T12:15:47;5.18;;;2.13;;
14907;SDS011;7545;52.092;7.006;2023-07-16T12:18:13;3.33;;;2.05;;
14907;SDS011;7545;52.092;7.006;2023-07-16T12:20:38;5.13;;;2.25;;
14907;SDS011;7545;52.092;7.006;2023-07-16T12:23:07;4.88;;;2.08;;
14907;SDS011;7545;52.092;7.006;2023-07-16T12:25:34;5.57;;;2.15;;
14907;SDS011;7545;52.092;7.006;2023-07-16T12:28:00;3.65;;;1.98;;
14907;SDS011;7545;52.092;7.006;2023-07-16T12:30:27;2.80;;;1.85;;
14907;SDS011;7545;52.092;7.006;2023-07-16T12:32:52;3.60;;;1.98;;
14907;SDS011;7545;52.092;7.006;2023-07-16T12:35:18;2.72;;;2.08;;
14907;SDS011;7545;52.092;7.006;2023-07-16T12:37:44;4.00;;;2.13;;
14907;SDS011;7545;52.092;7.006;2023-07-16T12:40:09;9.10;;;2.38;;
14907;SDS011;7545;52.092;7.006;2023-07-16T12:42:35;5.72;;;2.40;;
14907;SDS011;7545;52.092;7.006;2023-07-16T12:45:01;4.10;;;1.80;;
14907;SDS011;7545;52.092;7.006;2023-07-16T12:47:27;3.30;;;1.85;;
14907;SDS011;7545;52.092;7.006;2023-07-16T12:49:52;4.55;;;2.10;;
14907;SDS011;7545;52.092;7.006;2023-07-16T12:52:18;2.30;;;1.73;;
14907;SDS011;7545;52.092;7.006;2023-07-16T12:54:44;4.30;;;2.38;;
14907;SDS011;7545;52.092;7.006;2023-07-16T12:57:09;2.95;;;2.10;;
14907;SDS011;7545;52.092;7.006;2023-07-16T12:59:35;4.38;;;1.67;;
14907;SDS011;7545;52.092;7.006;2023-07-16T13:02:00;3.90;;;2.40;;
14907;SDS011;7545;52.092;7.006;2023-07-16T13:04:26;2.45;;;1.88;;
14907;SDS011;7545;52.092;7.006;2023-07-16T13:06:52;3.35;;;1.92;;
14907;SDS011;7545;52.092;7.006;2023-07-16T13:09:17;4.18;;;2.00;;
14907;SDS011;7545;52.092;7.006;2023-07-16T13:11:43;3.42;;;2.05;;
14907;SDS011;7545;52.092;7.006;2023-07-16T13:14:09;3.03;;;2.08;;
14907;SDS011;7545;52.092;7.006;2023-07-16T13:16:34;3.85;;;2.00;;
14907;SDS011;7545;52.092;7.006;2023-07-16T13:19:00;4.07;;;2.20;;
14907;SDS011;7545;52.092;7.006;2023-07-16T13:21:25;3.72;;;2.47;;
14907;SDS011;7545;52.092;7.006;2023-07-16T13:23:51;2.17;;;1.98;;
14907;SDS011;7545;52.092;7.006;2023-07-16T13:26:16;3.85;;;2.10;;
14907;SDS011;7545;52.092;7.006;2023-07-16T13:28:42;4.70;;;1.90;;
14907;SDS011;7545;52.092;7.006;2023-07-16T13:31:08;3.45;;;2.50;;
14907;SDS011;7545;52.092;7.006;2023-07-16T13:33:33;3.53;;;2.20;;
14907;SDS011;7545;52.092;7.006;2023-07-16T13:36:01;4.82;;;2.08;;
14907;SDS011;7545;52.092;7.006;2023-07-16T13:38:29;11.32;;;3.28;;
14907;SDS011;7545;52.092;7.006;2023-07-16T13:40:55;3.80;;;2.38;;
14907;SDS011;7545;52.092;7.006;2023-07-16T13:43:21;4.72;;;2.45;;
14907;SDS011;7545;52.092;7.006;2023-07-16T13:45:46;4.03;;;2.40;;
14907;SDS011;7545;52.092;7.006;2023-07-16T13:48:12;3.20;;;2.40;;
14907;SDS011;7545;52.092;7.006;2023-07-16T13:50:38;3.80;;;2.55;;
14907;SDS011;7545;52.092;7.006;2023-07-16T13:53:03;5.03;;;2.30;;
14907;SDS011;7545;52.092;7.006;2023-07-16T13:55:29;3.88;;;2.20;;
14907;SDS011;7545;52.092;7.006;2023-07-16T13:57:54;3.47;;;2.38;;
14907;SDS011;7545;52.092;7.006;2023-07-16T14:00:26;3.53;;;2.17;;
14907;SDS011;7545;52.092;7.006;2023-07-16T14:02:51;3.63;;;2.10;;
14907;SDS011;7545;52.092;7.006;2023-07-16T14:05:17;4.55;;;2.35;;
14907;SDS011;7545;52.092;7.006;2023-07-16T14:07:42;3.03;;;1.80;;
14907;SDS011;7545;52.092;7.006;2023-07-16T14:10:08;3.53;;;2.22;;
14907;SDS011;7545;52.092;7.006;2023-07-16T14:12:34;2.53;;;1.75;;
14907;SDS011;7545;52.092;7.006;2023-07-16T14:15:00;3.10;;;1.80;;
14907;SDS011;7545;52.092;7.006;2023-07-16T14:17:25;4.22;;;1.75;;
14907;SDS011;7545;52.092;7.006;2023-07-16T14:19:51;3.45;;;1.98;;
14907;SDS011;7545;52.092;7.006;2023-07-16T14:22:17;2.35;;;1.75;;
14907;SDS011;7545;52.092;7.006;2023-07-16T14:24:43;4.45;;;1.98;;
14907;SDS011;7545;52.092;7.006;2023-07-16T14:27:09;3.70;;;2.03;;
14907;SDS011;7545;52.092;7.006;2023-07-16T14:29:35;4.35;;;1.90;;
14907;SDS011;7545;52.092;7.006;2023-07-16T14:32:00;1.90;;;1.70;;
14907;SDS011;7545;52.092;7.006;2023-07-16T14:34:26;3.03;;;1.98;;
14907;SDS011;7545;52.092;7.006;2023-07-16T14:36:52;4.47;;;2.30;;
14907;SDS011;7545;52.092;7.006;2023-07-16T14:39:18;2.97;;;1.58;;
14907;SDS011;7545;52.092;7.006;2023-07-16T14:41:44;3.97;;;2.17;;
14907;SDS011;7545;52.092;7.006;2023-07-16T14:44:10;4.05;;;2.42;;
14907;SDS011;7545;52.092;7.006;2023-07-16T14:46:36;3.47;;;2.17;;
14907;SDS011;7545;52.092;7.006;2023-07-16T14:49:02;4.55;;;1.95;;
14907;SDS011;7545;52.092;7.006;2023-07-16T14:51:28;4.43;;;1.90;;
14907;SDS011;7545;52.092;7.006;2023-07-16T14:53:55;3.50;;;2.33;;
14907;SDS011;7545;52.092;7.006;2023-07-16T14:56:21;4.15;;;2.45;;
14907;SDS011;7545;52.092;7.006;2023-07-16T14:58:46;5.32;;;3.50;;
14907;SDS011;7545;52.092;7.006;2023-07-16T15:01:12;4.20;;;2.08;;
14907;SDS011;7545;52.092;7.006;2023-07-16T15:03:38;5.20;;;2.55;;
14907;SDS011;7545;52.092;7.006;2023-07-16T15:06:05;3.50;;;2.25;;
14907;SDS011;7545;52.092;7.006;2023-07-16T15:08:31;3.60;;;2.30;;
14907;SDS011;7545;52.092;7.006;2023-07-16T15:10:57;3.63;;;2.20;;
14907;SDS011;7545;52.092;7.006;2023-07-16T15:13:26;3.67;;;2.35;;